sensor_id;sensor_type;location;lat;lon;timestamp;P1;durP1;ratioP1;P2;durP2;ratioP2
85769;SDS011;76210;41.986;21.462;2024-02-26T00:01:07;29.77;;;18.60;;
85769;SDS011;76210;41.986;21.462;2024-02-26T00:03:32;34.13;;;20.47;;
85769;SDS011;76210;41.986;21.462;2024-02-26T00:06:00;19.48;;;14.48;;
85769;SDS011;76210;41.986;21.462;2024-02-26T00:08:26;33.13;;;20.33;;
85769;SDS011;76210;41.986;21.462;2024-02-26T00:10:51;21.20;;;14.27;;
85769;SDS011;76210;41.986;21.462;2024-02-26T00:13:16;21.33;;;14.40;;
85769;SDS011;76210;41.986;21.462;2024-02-26T00:15:41;27.83;;;17.40;;
85769;SDS011;76210;41.986;21.462;2024-02-26T00:18:07;22.13;;;13.50;;
85769;SDS011;76210;41.986;21.462;2024-02-26T00:20:32;25.20;;;15.82;;
85769;SDS011;76210;41.986;21.462;2024-02-26T00:22:57;34.00;;;21.63;;
85769;SDS011;76210;41.986;21.462;2024-02-26T00:25:23;26.67;;;16.13;;
85769;SDS011;76210;41.986;21.462;2024-02-26T00:27:48;36.00;;;21.73;;
85769;SDS011;76210;41.986;21.462;2024-02-26T00:30:13;32.38;;;19.63;;
85769;SDS011;76210;41.986;21.462;2024-02-26T00:32:39;31.75;;;19.77;;
85769;SDS011;76210;41.986;21.462;2024-02-26T00:35:04;21.80;;;14.65;;
85769;SDS011;76210;41.986;21.462;2024-02-26T00:37:29;18.02;;;13.55;;
85769;SDS011;76210;41.986;21.462;2024-02-26T00:39:55;22.73;;;14.95;;
85769;SDS011;76210;41.986;21.462;2024-02-26T00:42:20;21.65;;;14.55;;
85769;SDS011;76210;41.986;21.462;2024-02-26T00:44:45;36.33;;;22.23;;
85769;SDS011;76210;41.986;21.462;2024-02-26T00:47:11;23.67;;;14.18;;
85769;SDS011;76210;41.986;21.462;2024-02-26T00:49:37;27.52;;;17.42;;
85769;SDS011;76210;41.986;21.462;2024-02-26T00:52:02;17.38;;;12.25;;
85769;SDS011;76210;41.986;21.462;2024-02-26T00:54:27;20.23;;;13.00;;
85769;SDS011;76210;41.986;21.462;2024-02-26T00:56:53;24.27;;;14.07;;
85769;SDS011;76210;41.986;21.462;2024-02-26T00:59:18;25.50;;;14.10;;
85769;SDS011;76210;41.986;21.462;2024-02-26T01:01:43;25.30;;;15.07;;
85769;SDS011;76210;41.986;21.462;2024-02-26T01:04:08;36.83;;;22.25;;
85769;SDS011;76210;41.986;21.462;2024-02-26T01:06:34;30.95;;;19.63;;
85769;SDS011;76210;41.986;21.462;2024-02-26T01:08:59;23.37;;;13.93;;
85769;SDS011;76210;41.986;21.462;2024-02-26T01:11:24;26.30;;;16.70;;
85769;SDS011;76210;41.986;21.462;2024-02-26T01:13:49;33.33;;;18.33;;
85769;SDS011;76210;41.986;21.462;2024-02-26T01:16:18;34.47;;;19.42;;
85769;SDS011;76210;41.986;21.462;2024-02-26T01:18:43;25.70;;;14.77;;
85769;SDS011;76210;41.986;21.462;2024-02-26T01:21:09;26.88;;;15.73;;
85769;SDS011;76210;41.986;21.462;2024-02-26T01:23:34;19.83;;;11.73;;
85769;SDS011;76210;41.986;21.462;2024-02-26T01:26:00;24.40;;;12.48;;
85769;SDS011;76210;41.986;21.462;2024-02-26T01:28:25;18.63;;;12.77;;
85769;SDS011;76210;41.986;21.462;2024-02-26T01:30:50;15.50;;;11.73;;
85769;SDS011;76210;41.986;21.462;2024-02-26T01:33:16;24.48;;;14.00;;
85769;SDS011;76210;41.986;21.462;2024-02-26T01:35:41;17.23;;;11.13;;
85769;SDS011;76210;41.986;21.462;2024-02-26T01:38:06;19.45;;;12.20;;
85769;SDS011;76210;41.986;21.462;2024-02-26T01:40:31;17.23;;;11.75;;
85769;SDS011;76210;41.986;21.462;2024-02-26T01:42:57;26.13;;;16.98;;
85769;SDS011;76210;41.986;21.462;2024-02-26T01:45:22;23.20;;;15.97;;
85769;SDS011;76210;41.986;21.462;2024-02-26T01:47:50;27.00;;;15.85;;
85769;SDS011;76210;41.986;21.462;2024-02-26T01:50:16;17.70;;;10.55;;
85769;SDS011;76210;41.986;21.462;2024-02-26T01:52:41;28.08;;;17.40;;
85769;SDS011;76210;41.986;21.462;2024-02-26T01:55:07;15.57;;;10.70;;
85769;SDS011;76210;41.986;21.462;2024-02-26T01:57:33;24.00;;;15.10;;
85769;SDS011;76210;41.986;21.462;2024-02-26T01:59:58;25.33;;;14.73;;
85769;SDS011;76210;41.986;21.462;2024-02-26T02:02:24;23.65;;;14.05;;
85769;SDS011;76210;41.986;21.462;2024-02-26T02:04:49;21.58;;;12.77;;
85769;SDS011;76210;41.986;21.462;2024-02-26T02:07:14;20.95;;;13.70;;
85769;SDS011;76210;41.986;21.462;2024-02-26T02:09:40;26.85;;;14.35;;
85769;SDS011;76210;41.986;21.462;2024-02-26T02:12:05;25.33;;;14.95;;
85769;SDS011;76210;41.986;21.462;2024-02-26T02:14:31;22.05;;;13.60;;
85769;SDS011;76210;41.986;21.462;2024-02-26T02:16:56;28.88;;;16.42;;
85769;SDS011;76210;41.986;21.462;2024-02-26T02:19:22;12.68;;;8.15;;
85769;SDS011;76210;41.986;21.462;2024-02-26T02:21:47;19.08;;;11.85;;
85769;SDS011;76210;41.986;21.462;2024-02-26T02:24:12;11.27;;;8.63;;
85769;SDS011;76210;41.986;21.462;2024-02-26T02:26:37;22.33;;;13.07;;
85769;SDS011;76210;41.986;21.462;2024-02-26T02:29:03;23.35;;;15.02;;
85769;SDS011;76210;41.986;21.462;2024-02-26T02:31:29;29.05;;;16.83;;
85769;SDS011;76210;41.986;21.462;2024-02-26T02:33:54;22.02;;;13.23;;
85769;SDS011;76210;41.986;21.462;2024-02-26T02:36:20;15.35;;;9.73;;
85769;SDS011;76210;41.986;21.462;2024-02-26T02:38:48;15.00;;;10.75;;
85769;SDS011;76210;41.986;21.462;2024-02-26T02:41:15;14.10;;;10.35;;
85769;SDS011;76210;41.986;21.462;2024-02-26T02:43:40;14.00;;;10.32;;
85769;SDS011;76210;41.986;21.462;2024-02-26T02:46:05;18.63;;;11.50;;
85769;SDS011;76210;41.986;21.462;2024-02-26T02:48:31;15.93;;;8.98;;
85769;SDS011;76210;41.986;21.462;2024-02-26T02:50:56;23.40;;;14.57;;
85769;SDS011;76210;41.986;21.462;2024-02-26T02:53:21;24.33;;;13.17;;
85769;SDS011;76210;41.986;21.462;2024-02-26T02:55:46;13.97;;;8.90;;
85769;SDS011;76210;41.986;21.462;2024-02-26T02:58:12;14.60;;;9.15;;
85769;SDS011;76210;41.986;21.462;2024-02-26T03:00:37;15.70;;;9.98;;
85769;SDS011;76210;41.986;21.462;2024-02-26T03:03:02;26.58;;;15.88;;
85769;SDS011;76210;41.986;21.462;2024-02-26T03:05:28;15.93;;;11.40;;
85769;SDS011;76210;41.986;21.462;2024-02-26T03:07:53;18.73;;;12.93;;
85769;SDS011;76210;41.986;21.462;2024-02-26T03:10:18;23.00;;;15.57;;
85769;SDS011;76210;41.986;21.462;2024-02-26T03:12:43;24.83;;;17.30;;
85769;SDS011;76210;41.986;21.462;2024-02-26T03:15:09;24.23;;;17.08;;
85769;SDS011;76210;41.986;21.462;2024-02-26T03:17:36;25.83;;;16.88;;
85769;SDS011;76210;41.986;21.462;2024-02-26T03:20:01;30.35;;;19.90;;
85769;SDS011;76210;41.986;21.462;2024-02-26T03:22:28;38.45;;;24.02;;
85769;SDS011;76210;41.986;21.462;2024-02-26T03:24:54;34.50;;;22.25;;
85769;SDS011;76210;41.986;21.462;2024-02-26T03:27:19;33.23;;;21.77;;
85769;SDS011;76210;41.986;21.462;2024-02-26T03:29:44;25.48;;;17.48;;
85769;SDS011;76210;41.986;21.462;2024-02-26T03:32:10;32.13;;;19.52;;
85769;SDS011;76210;41.986;21.462;2024-02-26T03:34:35;27.40;;;18.27;;
85769;SDS011;76210;41.986;21.462;2024-02-26T03:37:00;29.33;;;19.45;;
85769;SDS011;76210;41.986;21.462;2024-02-26T03:39:26;31.10;;;18.17;;
85769;SDS011;76210;41.986;21.462;2024-02-26T03:41:51;25.58;;;18.00;;
85769;SDS011;76210;41.986;21.462;2024-02-26T03:44:16;29.73;;;20.13;;
85769;SDS011;76210;41.986;21.462;2024-02-26T03:46:41;29.35;;;19.55;;
85769;SDS011;76210;41.986;21.462;2024-02-26T03:49:10;29.73;;;20.77;;
85769;SDS011;76210;41.986;21.462;2024-02-26T03:51:35;29.02;;;20.25;;
85769;SDS011;76210;41.986;21.462;2024-02-26T03:54:00;37.13;;;22.98;;
85769;SDS011;76210;41.986;21.462;2024-02-26T03:56:26;32.60;;;20.25;;
85769;SDS011;76210;41.986;21.462;2024-02-26T03:58:52;31.40;;;21.77;;
85769;SDS011;76210;41.986;21.462;2024-02-26T04:01:17;40.20;;;24.13;;
85769;SDS011;76210;41.986;21.462;2024-02-26T04:03:42;41.22;;;24.92;;
85769;SDS011;76210;41.986;21.462;2024-02-26T04:06:09;33.15;;;21.92;;
85769;SDS011;76210;41.986;21.462;2024-02-26T04:08:35;34.30;;;21.80;;
85769;SDS011;76210;41.986;21.462;2024-02-26T04:11:00;44.47;;;25.95;;
85769;SDS011;76210;41.986;21.462;2024-02-26T04:13:26;33.80;;;23.23;;
85769;SDS011;76210;41.986;21.462;2024-02-26T04:15:51;37.20;;;23.23;;
85769;SDS011;76210;41.986;21.462;2024-02-26T04:18:16;32.42;;;20.10;;
85769;SDS011;76210;41.986;21.462;2024-02-26T04:20:42;34.28;;;21.27;;
85769;SDS011;76210;41.986;21.462;2024-02-26T04:23:07;30.80;;;20.77;;
85769;SDS011;76210;41.986;21.462;2024-02-26T04:25:32;37.33;;;22.77;;
85769;SDS011;76210;41.986;21.462;2024-02-26T04:27:58;31.53;;;21.10;;
85769;SDS011;76210;41.986;21.462;2024-02-26T04:30:23;34.80;;;22.00;;
85769;SDS011;76210;41.986;21.462;2024-02-26T04:32:48;43.60;;;25.13;;
85769;SDS011;76210;41.986;21.462;2024-02-26T04:35:14;39.13;;;22.90;;
85769;SDS011;76210;41.986;21.462;2024-02-26T04:37:39;30.83;;;19.15;;
85769;SDS011;76210;41.986;21.462;2024-02-26T04:40:05;28.90;;;19.73;;
85769;SDS011;76210;41.986;21.462;2024-02-26T04:42:30;31.80;;;20.90;;
85769;SDS011;76210;41.986;21.462;2024-02-26T04:44:56;38.17;;;22.77;;
85769;SDS011;76210;41.986;21.462;2024-02-26T04:47:21;31.60;;;20.48;;
85769;SDS011;76210;41.986;21.462;2024-02-26T04:49:47;36.13;;;21.60;;
85769;SDS011;76210;41.986;21.462;2024-02-26T04:52:13;29.05;;;19.98;;
85769;SDS011;76210;41.986;21.462;2024-02-26T04:54:38;29.63;;;20.08;;
85769;SDS011;76210;41.986;21.462;2024-02-26T04:57:03;33.67;;;20.08;;
85769;SDS011;76210;41.986;21.462;2024-02-26T04:59:29;32.60;;;20.13;;
85769;SDS011;76210;41.986;21.462;2024-02-26T05:01:55;28.30;;;19.50;;
85769;SDS011;76210;41.986;21.462;2024-02-26T05:04:20;28.15;;;18.55;;
85769;SDS011;76210;41.986;21.462;2024-02-26T05:06:45;27.85;;;17.88;;
85769;SDS011;76210;41.986;21.462;2024-02-26T05:09:10;28.13;;;18.25;;
85769;SDS011;76210;41.986;21.462;2024-02-26T05:11:36;31.88;;;20.35;;
85769;SDS011;76210;41.986;21.462;2024-02-26T05:14:01;30.10;;;18.35;;
85769;SDS011;76210;41.986;21.462;2024-02-26T05:16:27;23.98;;;16.23;;
85769;SDS011;76210;41.986;21.462;2024-02-26T05:18:52;27.95;;;19.30;;
85769;SDS011;76210;41.986;21.462;2024-02-26T05:21:18;29.65;;;18.15;;
85769;SDS011;76210;41.986;21.462;2024-02-26T05:23:43;28.80;;;17.70;;
85769;SDS011;76210;41.986;21.462;2024-02-26T05:26:09;29.08;;;18.98;;
85769;SDS011;76210;41.986;21.462;2024-02-26T05:28:34;32.35;;;19.98;;
85769;SDS011;76210;41.986;21.462;2024-02-26T05:30:59;29.10;;;17.90;;
85769;SDS011;76210;41.986;21.462;2024-02-26T05:33:25;27.88;;;17.88;;
85769;SDS011;76210;41.986;21.462;2024-02-26T05:35:50;23.55;;;16.13;;
85769;SDS011;76210;41.986;21.462;2024-02-26T05:38:15;32.97;;;19.53;;
85769;SDS011;76210;41.986;21.462;2024-02-26T05:40:41;29.50;;;17.60;;
85769;SDS011;76210;41.986;21.462;2024-02-26T05:43:06;31.00;;;18.23;;
85769;SDS011;76210;41.986;21.462;2024-02-26T05:45:31;36.50;;;21.45;;
85769;SDS011;76210;41.986;21.462;2024-02-26T05:47:58;30.50;;;19.77;;
85769;SDS011;76210;41.986;21.462;2024-02-26T05:50:23;31.27;;;18.67;;
85769;SDS011;76210;41.986;21.462;2024-02-26T05:52:48;34.10;;;20.07;;
85769;SDS011;76210;41.986;21.462;2024-02-26T05:55:13;30.80;;;18.13;;
85769;SDS011;76210;41.986;21.462;2024-02-26T05:57:39;26.48;;;17.77;;
85769;SDS011;76210;41.986;21.462;2024-02-26T06:00:05;34.17;;;20.00;;
85769;SDS011;76210;41.986;21.462;2024-02-26T06:02:30;31.58;;;18.77;;
85769;SDS011;76210;41.986;21.462;2024-02-26T06:04:56;30.15;;;18.33;;
85769;SDS011;76210;41.986;21.462;2024-02-26T06:07:21;32.10;;;19.20;;
85769;SDS011;76210;41.986;21.462;2024-02-26T06:09:46;29.85;;;19.58;;
85769;SDS011;76210;41.986;21.462;2024-02-26T06:12:11;30.33;;;18.27;;
85769;SDS011;76210;41.986;21.462;2024-02-26T06:14:37;28.47;;;19.43;;
85769;SDS011;76210;41.986;21.462;2024-02-26T06:17:02;26.47;;;17.90;;
85769;SDS011;76210;41.986;21.462;2024-02-26T06:19:27;27.90;;;17.27;;
85769;SDS011;76210;41.986;21.462;2024-02-26T06:21:52;29.67;;;18.75;;
85769;SDS011;76210;41.986;21.462;2024-02-26T06:24:18;29.65;;;17.65;;
85769;SDS011;76210;41.986;21.462;2024-02-26T06:26:45;31.30;;;19.08;;
85769;SDS011;76210;41.986;21.462;2024-02-26T06:29:11;29.13;;;19.80;;
85769;SDS011;76210;41.986;21.462;2024-02-26T06:31:36;33.03;;;20.53;;
85769;SDS011;76210;41.986;21.462;2024-02-26T06:34:02;29.48;;;19.50;;
85769;SDS011;76210;41.986;21.462;2024-02-26T06:36:28;27.02;;;18.83;;
85769;SDS011;76210;41.986;21.462;2024-02-26T06:38:53;29.43;;;18.93;;
85769;SDS011;76210;41.986;21.462;2024-02-26T06:41:19;28.02;;;18.10;;
85769;SDS011;76210;41.986;21.462;2024-02-26T06:43:44;30.33;;;19.00;;
85769;SDS011;76210;41.986;21.462;2024-02-26T06:46:09;29.87;;;18.63;;
85769;SDS011;76210;41.986;21.462;2024-02-26T06:48:35;28.63;;;19.50;;
85769;SDS011;76210;41.986;21.462;2024-02-26T06:51:02;27.52;;;20.00;;
85769;SDS011;76210;41.986;21.462;2024-02-26T06:53:27;30.20;;;18.15;;
85769;SDS011;76210;41.986;21.462;2024-02-26T06:55:52;32.28;;;20.55;;
85769;SDS011;76210;41.986;21.462;2024-02-26T06:58:17;29.77;;;20.23;;
85769;SDS011;76210;41.986;21.462;2024-02-26T07:00:43;26.60;;;19.05;;
85769;SDS011;76210;41.986;21.462;2024-02-26T07:03:08;29.33;;;19.77;;
85769;SDS011;76210;41.986;21.462;2024-02-26T07:05:33;25.83;;;19.27;;
85769;SDS011;76210;41.986;21.462;2024-02-26T07:07:59;29.42;;;19.85;;
85769;SDS011;76210;41.986;21.462;2024-02-26T07:10:24;34.15;;;21.55;;
85769;SDS011;76210;41.986;21.462;2024-02-26T07:12:49;29.77;;;20.60;;
85769;SDS011;76210;41.986;21.462;2024-02-26T07:15:15;28.83;;;22.47;;
85769;SDS011;76210;41.986;21.462;2024-02-26T07:17:40;27.55;;;21.83;;
85769;SDS011;76210;41.986;21.462;2024-02-26T07:20:12;32.42;;;22.35;;
85769;SDS011;76210;41.986;21.462;2024-02-26T07:22:37;28.92;;;21.92;;
85769;SDS011;76210;41.986;21.462;2024-02-26T07:25:03;28.08;;;22.52;;
85769;SDS011;76210;41.986;21.462;2024-02-26T07:27:28;28.33;;;21.27;;
85769;SDS011;76210;41.986;21.462;2024-02-26T07:29:54;28.15;;;21.50;;
85769;SDS011;76210;41.986;21.462;2024-02-26T07:32:19;25.90;;;21.40;;
85769;SDS011;76210;41.986;21.462;2024-02-26T07:34:44;28.35;;;21.33;;
85769;SDS011;76210;41.986;21.462;2024-02-26T07:37:10;28.17;;;22.52;;
85769;SDS011;76210;41.986;21.462;2024-02-26T07:39:35;30.02;;;21.17;;
85769;SDS011;76210;41.986;21.462;2024-02-26T07:42:01;28.13;;;21.30;;
85769;SDS011;76210;41.986;21.462;2024-02-26T07:44:27;30.95;;;22.90;;
85769;SDS011;76210;41.986;21.462;2024-02-26T07:46:52;27.40;;;19.80;;
85769;SDS011;76210;41.986;21.462;2024-02-26T07:49:17;25.40;;;19.30;;
85769;SDS011;76210;41.986;21.462;2024-02-26T07:51:42;29.33;;;21.73;;
85769;SDS011;76210;41.986;21.462;2024-02-26T07:54:08;26.17;;;20.17;;
85769;SDS011;76210;41.986;21.462;2024-02-26T07:56:33;21.48;;;18.70;;
85769;SDS011;76210;41.986;21.462;2024-02-26T07:58:58;24.27;;;16.93;;
85769;SDS011;76210;41.986;21.462;2024-02-26T08:01:24;24.95;;;18.70;;
85769;SDS011;76210;41.986;21.462;2024-02-26T08:03:51;19.67;;;17.13;;
85769;SDS011;76210;41.986;21.462;2024-02-26T08:06:16;23.07;;;17.93;;
85769;SDS011;76210;41.986;21.462;2024-02-26T08:08:41;20.20;;;17.05;;
85769;SDS011;76210;41.986;21.462;2024-02-26T08:11:06;18.87;;;14.50;;
85769;SDS011;76210;41.986;21.462;2024-02-26T08:13:32;16.63;;;13.95;;
85769;SDS011;76210;41.986;21.462;2024-02-26T08:15:57;16.23;;;13.15;;
85769;SDS011;76210;41.986;21.462;2024-02-26T08:18:24;19.35;;;13.80;;
85769;SDS011;76210;41.986;21.462;2024-02-26T08:20:49;20.57;;;15.03;;
85769;SDS011;76210;41.986;21.462;2024-02-26T08:23:14;26.80;;;15.60;;
85769;SDS011;76210;41.986;21.462;2024-02-26T08:25:39;22.50;;;16.73;;
85769;SDS011;76210;41.986;21.462;2024-02-26T08:28:05;21.40;;;15.85;;
85769;SDS011;76210;41.986;21.462;2024-02-26T08:30:30;20.75;;;15.10;;
85769;SDS011;76210;41.986;21.462;2024-02-26T08:32:55;20.47;;;16.03;;
85769;SDS011;76210;41.986;21.462;2024-02-26T08:35:21;20.80;;;15.95;;
85769;SDS011;76210;41.986;21.462;2024-02-26T08:37:46;21.57;;;14.80;;
85769;SDS011;76210;41.986;21.462;2024-02-26T08:40:12;17.55;;;14.27;;
85769;SDS011;76210;41.986;21.462;2024-02-26T08:42:37;17.92;;;13.98;;
85769;SDS011;76210;41.986;21.462;2024-02-26T08:45:02;17.35;;;13.45;;
85769;SDS011;76210;41.986;21.462;2024-02-26T08:47:28;18.52;;;15.02;;
85769;SDS011;76210;41.986;21.462;2024-02-26T08:49:53;24.08;;;17.50;;
85769;SDS011;76210;41.986;21.462;2024-02-26T08:52:18;23.42;;;17.13;;
85769;SDS011;76210;41.986;21.462;2024-02-26T08:54:44;20.53;;;16.80;;
85769;SDS011;76210;41.986;21.462;2024-02-26T08:57:09;20.25;;;17.90;;
85769;SDS011;76210;41.986;21.462;2024-02-26T08:59:34;19.67;;;15.48;;
85769;SDS011;76210;41.986;21.462;2024-02-26T09:02:00;24.35;;;18.92;;
85769;SDS011;76210;41.986;21.462;2024-02-26T09:04:25;24.80;;;19.80;;
85769;SDS011;76210;41.986;21.462;2024-02-26T09:06:52;21.05;;;17.45;;
85769;SDS011;76210;41.986;21.462;2024-02-26T09:09:17;18.27;;;14.07;;
85769;SDS011;76210;41.986;21.462;2024-02-26T09:11:42;19.80;;;13.57;;
85769;SDS011;76210;41.986;21.462;2024-02-26T09:14:08;16.43;;;13.20;;
85769;SDS011;76210;41.986;21.462;2024-02-26T09:16:33;12.23;;;9.63;;
85769;SDS011;76210;41.986;21.462;2024-02-26T09:18:59;15.60;;;12.10;;
85769;SDS011;76210;41.986;21.462;2024-02-26T09:21:24;17.23;;;12.27;;
85769;SDS011;76210;41.986;21.462;2024-02-26T09:23:50;16.95;;;11.93;;
85769;SDS011;76210;41.986;21.462;2024-02-26T09:26:16;14.27;;;11.20;;
85769;SDS011;76210;41.986;21.462;2024-02-26T09:28:41;15.10;;;10.05;;
85769;SDS011;76210;41.986;21.462;2024-02-26T09:31:06;12.23;;;10.25;;
85769;SDS011;76210;41.986;21.462;2024-02-26T09:33:32;13.52;;;9.57;;
85769;SDS011;76210;41.986;21.462;2024-02-26T09:35:57;14.13;;;8.65;;
85769;SDS011;76210;41.986;21.462;2024-02-26T09:38:23;17.52;;;7.65;;
85769;SDS011;76210;41.986;21.462;2024-02-26T09:40:49;11.10;;;6.47;;
85769;SDS011;76210;41.986;21.462;2024-02-26T09:43:14;9.80;;;7.10;;
85769;SDS011;76210;41.986;21.462;2024-02-26T09:45:42;11.65;;;8.38;;
85769;SDS011;76210;41.986;21.462;2024-02-26T09:48:08;12.43;;;7.00;;
85769;SDS011;76210;41.986;21.462;2024-02-26T09:50:35;10.23;;;6.90;;
85769;SDS011;76210;41.986;21.462;2024-02-26T09:53:00;7.82;;;5.63;;
85769;SDS011;76210;41.986;21.462;2024-02-26T09:55:27;11.05;;;5.75;;
85769;SDS011;76210;41.986;21.462;2024-02-26T09:57:53;9.93;;;5.90;;
85769;SDS011;76210;41.986;21.462;2024-02-26T10:00:19;9.98;;;5.78;;
85769;SDS011;76210;41.986;21.462;2024-02-26T10:02:46;9.40;;;5.90;;
85769;SDS011;76210;41.986;21.462;2024-02-26T10:05:12;11.13;;;5.68;;
85769;SDS011;76210;41.986;21.462;2024-02-26T10:07:39;9.60;;;5.75;;
85769;SDS011;76210;41.986;21.462;2024-02-26T10:10:05;10.32;;;5.90;;
85769;SDS011;76210;41.986;21.462;2024-02-26T10:12:30;7.50;;;5.45;;
85769;SDS011;76210;41.986;21.462;2024-02-26T10:14:57;10.32;;;5.53;;
85769;SDS011;76210;41.986;21.462;2024-02-26T10:17:22;8.50;;;5.10;;
85769;SDS011;76210;41.986;21.462;2024-02-26T10:19:48;9.95;;;5.03;;
85769;SDS011;76210;41.986;21.462;2024-02-26T10:22:13;9.57;;;5.20;;
85769;SDS011;76210;41.986;21.462;2024-02-26T10:24:38;8.77;;;5.45;;
85769;SDS011;76210;41.986;21.462;2024-02-26T10:27:04;8.73;;;5.27;;
85769;SDS011;76210;41.986;21.462;2024-02-26T10:29:31;9.18;;;5.65;;
85769;SDS011;76210;41.986;21.462;2024-02-26T10:31:57;7.65;;;5.03;;
85769;SDS011;76210;41.986;21.462;2024-02-26T10:34:22;8.97;;;4.63;;
85769;SDS011;76210;41.986;21.462;2024-02-26T10:36:49;7.32;;;4.22;;
85769;SDS011;76210;41.986;21.462;2024-02-26T10:39:14;6.03;;;3.95;;
85769;SDS011;76210;41.986;21.462;2024-02-26T10:41:40;7.25;;;3.75;;
85769;SDS011;76210;41.986;21.462;2024-02-26T10:44:06;5.63;;;3.97;;
85769;SDS011;76210;41.986;21.462;2024-02-26T10:46:33;12.27;;;4.60;;
85769;SDS011;76210;41.986;21.462;2024-02-26T10:48:59;7.85;;;4.07;;
85769;SDS011;76210;41.986;21.462;2024-02-26T10:51:26;5.53;;;2.78;;
85769;SDS011;76210;41.986;21.462;2024-02-26T10:53:54;10.18;;;3.00;;
85769;SDS011;76210;41.986;21.462;2024-02-26T10:56:21;7.93;;;3.45;;
85769;SDS011;76210;41.986;21.462;2024-02-26T10:58:50;9.25;;;4.00;;
85769;SDS011;76210;41.986;21.462;2024-02-26T11:01:15;4.80;;;3.60;;
85769;SDS011;76210;41.986;21.462;2024-02-26T11:03:41;6.53;;;3.30;;
85769;SDS011;76210;41.986;21.462;2024-02-26T11:06:06;4.65;;;3.28;;
85769;SDS011;76210;41.986;21.462;2024-02-26T11:08:33;9.50;;;3.80;;
85769;SDS011;76210;41.986;21.462;2024-02-26T11:10:58;7.82;;;4.30;;
85769;SDS011;76210;41.986;21.462;2024-02-26T11:13:26;10.38;;;5.13;;
85769;SDS011;76210;41.986;21.462;2024-02-26T11:15:52;6.65;;;3.90;;
85769;SDS011;76210;41.986;21.462;2024-02-26T11:18:19;5.05;;;3.20;;
85769;SDS011;76210;41.986;21.462;2024-02-26T11:20:45;5.80;;;3.53;;
85769;SDS011;76210;41.986;21.462;2024-02-26T11:23:11;5.47;;;3.53;;
85769;SDS011;76210;41.986;21.462;2024-02-26T11:25:36;7.70;;;3.00;;
85769;SDS011;76210;41.986;21.462;2024-02-26T11:28:04;4.40;;;3.33;;
85769;SDS011;76210;41.986;21.462;2024-02-26T11:30:30;8.32;;;3.97;;
85769;SDS011;76210;41.986;21.462;2024-02-26T11:32:56;7.47;;;3.67;;
85769;SDS011;76210;41.986;21.462;2024-02-26T11:35:22;10.82;;;4.60;;
85769;SDS011;76210;41.986;21.462;2024-02-26T11:37:54;7.07;;;3.67;;
85769;SDS011;76210;41.986;21.462;2024-02-26T11:40:21;9.55;;;3.53;;
85769;SDS011;76210;41.986;21.462;2024-02-26T11:42:47;7.57;;;4.10;;
85769;SDS011;76210;41.986;21.462;2024-02-26T11:47:56;17.50;;;11.00;;
85769;SDS011;76210;41.986;21.462;2024-02-26T11:50:34;7.43;;;3.78;;
85769;SDS011;76210;41.986;21.462;2024-02-26T11:58:40;22.60;;;14.52;;
85769;SDS011;76210;41.986;21.462;2024-02-26T12:01:05;7.25;;;3.92;;
85769;SDS011;76210;41.986;21.462;2024-02-26T12:03:31;8.63;;;4.72;;
85769;SDS011;76210;41.986;21.462;2024-02-26T12:05:56;4.97;;;3.22;;
85769;SDS011;76210;41.986;21.462;2024-02-26T12:08:21;29.55;;;19.20;;
85769;SDS011;76210;41.986;21.462;2024-02-26T12:10:48;5.65;;;3.65;;
85769;SDS011;76210;41.986;21.462;2024-02-26T12:13:17;4.82;;;3.08;;
85769;SDS011;76210;41.986;21.462;2024-02-26T12:15:45;7.13;;;3.13;;
85769;SDS011;76210;41.986;21.462;2024-02-26T12:18:17;8.10;;;5.10;;
85769;SDS011;76210;41.986;21.462;2024-02-26T12:20:42;10.40;;;6.03;;
85769;SDS011;76210;41.986;21.462;2024-02-26T12:23:15;20.55;;;12.75;;
85769;SDS011;76210;41.986;21.462;2024-02-26T12:25:42;6.05;;;3.47;;
85769;SDS011;76210;41.986;21.462;2024-02-26T12:28:09;6.88;;;3.60;;
85769;SDS011;76210;41.986;21.462;2024-02-26T12:30:35;3.72;;;2.60;;
85769;SDS011;76210;41.986;21.462;2024-02-26T12:33:00;8.32;;;4.72;;
85769;SDS011;76210;41.986;21.462;2024-02-26T12:35:26;4.57;;;3.30;;
85769;SDS011;76210;41.986;21.462;2024-02-26T12:37:52;4.38;;;2.70;;
85769;SDS011;76210;41.986;21.462;2024-02-26T12:40:18;4.00;;;2.47;;
85769;SDS011;76210;41.986;21.462;2024-02-26T12:42:44;20.58;;;11.23;;
85769;SDS011;76210;41.986;21.462;2024-02-26T12:45:10;5.45;;;3.22;;
85769;SDS011;76210;41.986;21.462;2024-02-26T12:47:39;18.77;;;9.70;;
85769;SDS011;76210;41.986;21.462;2024-02-26T12:50:05;14.25;;;6.97;;
85769;SDS011;76210;41.986;21.462;2024-02-26T12:52:33;6.22;;;3.00;;
85769;SDS011;76210;41.986;21.462;2024-02-26T12:54:59;6.15;;;3.58;;
85769;SDS011;76210;41.986;21.462;2024-02-26T12:57:25;6.03;;;3.20;;
85769;SDS011;76210;41.986;21.462;2024-02-26T12:59:52;6.18;;;3.25;;
85769;SDS011;76210;41.986;21.462;2024-02-26T13:02:17;9.07;;;4.70;;
85769;SDS011;76210;41.986;21.462;2024-02-26T13:04:42;7.72;;;5.07;;
85769;SDS011;76210;41.986;21.462;2024-02-26T13:07:09;5.82;;;4.18;;
85769;SDS011;76210;41.986;21.462;2024-02-26T13:09:34;7.47;;;3.80;;
85769;SDS011;76210;41.986;21.462;2024-02-26T13:12:06;8.40;;;4.00;;
85769;SDS011;76210;41.986;21.462;2024-02-26T13:14:32;9.52;;;4.00;;
85769;SDS011;76210;41.986;21.462;2024-02-26T13:16:59;8.93;;;4.22;;
85769;SDS011;76210;41.986;21.462;2024-02-26T13:19:24;7.65;;;4.55;;
85769;SDS011;76210;41.986;21.462;2024-02-26T13:21:50;8.98;;;4.55;;
85769;SDS011;76210;41.986;21.462;2024-02-26T13:24:15;7.18;;;3.80;;
85769;SDS011;76210;41.986;21.462;2024-02-26T13:26:41;9.82;;;4.25;;
85769;SDS011;76210;41.986;21.462;2024-02-26T13:29:06;9.25;;;4.80;;
85769;SDS011;76210;41.986;21.462;2024-02-26T13:31:32;7.17;;;3.23;;
85769;SDS011;76210;41.986;21.462;2024-02-26T13:34:03;6.30;;;3.72;;
85769;SDS011;76210;41.986;21.462;2024-02-26T13:36:29;7.00;;;3.22;;
85769;SDS011;76210;41.986;21.462;2024-02-26T13:38:54;5.53;;;3.35;;
85769;SDS011;76210;41.986;21.462;2024-02-26T13:41:23;7.13;;;3.70;;
85769;SDS011;76210;41.986;21.462;2024-02-26T13:43:48;5.63;;;3.70;;
85769;SDS011;76210;41.986;21.462;2024-02-26T13:46:14;5.95;;;3.63;;
85769;SDS011;76210;41.986;21.462;2024-02-26T13:48:40;6.63;;;3.60;;
85769;SDS011;76210;41.986;21.462;2024-02-26T13:51:06;4.63;;;3.58;;
85769;SDS011;76210;41.986;21.462;2024-02-26T13:53:31;5.07;;;3.25;;
85769;SDS011;76210;41.986;21.462;2024-02-26T13:55:56;6.57;;;4.13;;
85769;SDS011;76210;41.986;21.462;2024-02-26T13:58:23;7.43;;;4.07;;
85769;SDS011;76210;41.986;21.462;2024-02-26T14:00:49;7.28;;;4.50;;
85769;SDS011;76210;41.986;21.462;2024-02-26T14:03:14;8.20;;;4.15;;
85769;SDS011;76210;41.986;21.462;2024-02-26T14:05:40;7.32;;;4.32;;
85769;SDS011;76210;41.986;21.462;2024-02-26T14:08:06;8.23;;;4.53;;
85769;SDS011;76210;41.986;21.462;2024-02-26T14:10:31;6.95;;;4.82;;
85769;SDS011;76210;41.986;21.462;2024-02-26T14:12:57;7.35;;;4.68;;
85769;SDS011;76210;41.986;21.462;2024-02-26T14:15:22;8.48;;;4.10;;